createdAt,value
2018-12-20T00:00:14.676Z,95.63
2018-12-20T00:05:27.239Z,95.84
2018-12-20T00:10:38.245Z,95.60
2018-12-20T00:15:50.210Z,95.18
2018-12-20T00:21:01.346Z,94.59
2018-12-20T00:26:13.579Z,94.67
2018-12-20T00:31:24.540Z,94.33
2018-12-20T00:36:36.482Z,94.39
2018-12-20T00:41:49.737Z,94.17
2018-12-20T00:47:01.724Z,94.00
2018-12-20T00:52:09.289Z,93.87
2018-12-20T00:57:21.317Z,94.49
2018-12-20T01:02:33.151Z,94.39
2018-12-20T01:07:45.480Z,93.58
2018-12-20T01:12:57.653Z,93.80
2018-12-20T01:18:09.030Z,93.37
2018-12-20T01:23:21.010Z,93.31
2018-12-20T01:28:32.405Z,92.61
2018-12-20T01:33:44.356Z,93.80
2018-12-20T01:38:55.455Z,94.52
2018-12-20T01:44:07.579Z,95.05
2018-12-20T01:49:18.584Z,95.13
2018-12-20T01:54:30.717Z,95.15
2018-12-20T01:59:41.704Z,95.75
2018-12-20T02:04:53.945Z,95.42
2018-12-20T02:10:05.473Z,95.19
2018-12-20T02:15:17.498Z,94.98
2018-12-20T02:20:28.493Z,93.94
2018-12-20T02:25:40.522Z,93.88
2018-12-20T02:30:51.702Z,94.01
2018-12-20T02:36:03.860Z,93.68
2018-12-20T02:41:14.921Z,94.35
2018-12-20T02:46:26.830Z,93.20
2018-12-20T02:51:38.238Z,93.75
2018-12-20T02:56:50.161Z,94.11
2018-12-20T03:02:01.142Z,94.12
2018-12-20T03:07:13.311Z,92.93
2018-12-20T03:12:24.312Z,93.36
2018-12-20T03:14:53.725Z,92.77
2018-12-20T03:20:06.924Z,91.87
2018-12-20T03:25:16.057Z,92.98
2018-12-20T03:30:27.293Z,92.33
2018-12-20T03:35:39.258Z,92.19
2018-12-20T03:40:50.343Z,91.98
2018-12-20T03:46:04.189Z,91.96
2018-12-20T03:51:15.695Z,91.84
2018-12-20T03:56:27.822Z,91.91
2018-12-20T04:01:38.889Z,91.95
2018-12-20T04:06:50.954Z,91.58
2018-12-20T04:12:02.202Z,91.50
2018-12-20T04:17:14.321Z,91.52
2018-12-20T04:22:25.474Z,91.49
2018-12-20T04:27:39.997Z,91.53
2018-12-20T04:32:51.291Z,91.21
2018-12-20T04:38:02.334Z,91.41
2018-12-20T04:43:14.358Z,94.15
2018-12-20T04:48:25.795Z,96.46
2018-12-20T04:53:37.814Z,99.37
2018-12-20T04:58:49.166Z,100.00
2018-12-20T05:04:01.457Z,100.00
2018-12-20T05:09:12.567Z,100.00
2018-12-20T05:14:26.405Z,100.00
2018-12-20T05:19:37.675Z,100.00
2018-12-20T05:24:49.926Z,100.00
2018-12-20T05:30:00.885Z,100.00
2018-12-20T05:35:12.962Z,100.00
2018-12-20T05:40:24.164Z,100.00
2018-12-20T05:45:38.337Z,100.00
2018-12-20T05:50:49.381Z,100.00
2018-12-20T05:56:01.515Z,100.00
2018-12-20T06:01:12.373Z,100.00
2018-12-20T06:03:41.713Z,100.00
2018-12-20T06:08:52.688Z,100.00
2018-12-20T06:14:04.661Z,100.00
2018-12-20T06:19:15.686Z,100.00
2018-12-20T06:24:29.714Z,100.00
2018-12-20T06:29:40.670Z,100.00
2018-12-20T06:34:52.647Z,100.00
2018-12-20T06:40:03.818Z,100.00
2018-12-20T06:45:16.464Z,100.00
2018-12-20T06:50:23.926Z,100.00
2018-12-20T06:55:35.881Z,100.00
2018-12-20T07:00:46.786Z,99.36
2018-12-20T07:05:58.710Z,98.76
2018-12-20T07:11:10.099Z,97.82
2018-12-20T07:16:29.271Z,97.62
2018-12-20T07:21:36.718Z,96.66
2018-12-20T07:26:48.946Z,96.14
2018-12-20T07:31:58.529Z,93.67
2018-12-20T07:37:10.722Z,93.14
2018-12-20T07:42:21.999Z,92.30
2018-12-20T07:44:51.735Z,91.97
2018-12-20T07:50:03.564Z,92.29
2018-12-20T07:55:16.718Z,91.55
2018-12-20T08:00:33.551Z,90.92
2018-12-20T08:05:46.319Z,90.98
2018-12-20T08:10:59.230Z,90.17
2018-12-20T08:16:11.667Z,89.59
2018-12-20T08:21:23.030Z,89.25
2018-12-20T08:26:35.286Z,89.28
2018-12-20T08:31:46.494Z,88.96
2018-12-20T08:36:58.596Z,88.57
2018-12-20T08:42:11.479Z,89.37
2018-12-20T08:47:23.522Z,89.22
2018-12-20T08:52:34.406Z,89.38
2018-12-20T08:57:46.689Z,88.62
2018-12-20T09:00:16.014Z,89.62
2018-12-20T09:02:45.674Z,90.15
2018-12-20T09:07:57.922Z,90.66
2018-12-20T09:13:10.038Z,89.09
2018-12-20T09:18:20.986Z,88.51
2018-12-20T09:23:33.092Z,86.90
2018-12-20T09:28:44.073Z,87.19
2018-12-20T09:33:56.169Z,86.47
2018-12-20T09:39:09.670Z,86.91
2018-12-20T09:44:21.794Z,87.07
2018-12-20T09:49:42.611Z,87.19
2018-12-20T09:54:54.853Z,88.44
2018-12-20T10:00:07.541Z,88.97
2018-12-20T10:05:19.803Z,89.32
2018-12-20T10:10:32.945Z,88.94
2018-12-20T10:15:44.978Z,89.22
2018-12-20T10:20:57.013Z,88.25
2018-12-20T10:26:09.192Z,88.08
2018-12-20T10:31:20.133Z,89.85
2018-12-20T10:36:32.130Z,91.51
2018-12-20T10:41:43.622Z,90.65
2018-12-20T10:46:59.882Z,91.62
2018-12-20T10:52:10.710Z,88.36
2018-12-20T10:57:24.594Z,87.61
2018-12-20T11:02:42.250Z,87.09
2018-12-20T11:09:13.726Z,87.17
2018-12-20T11:14:44.670Z,86.06
2018-12-20T11:19:55.681Z,86.05
2018-12-20T11:22:25.187Z,85.33
2018-12-20T11:27:39.094Z,85.43
2018-12-20T11:32:52.601Z,85.08
2018-12-20T11:38:03.550Z,85.30
2018-12-20T11:43:15.350Z,85.41
2018-12-20T11:48:26.378Z,84.70
2018-12-20T11:53:38.302Z,84.23
2018-12-20T11:58:49.292Z,83.54
2018-12-20T12:04:01.307Z,82.92
2018-12-20T12:09:12.142Z,83.46
2018-12-20T12:14:24.368Z,83.78
2018-12-20T12:19:35.625Z,82.46
2018-12-20T12:24:47.974Z,82.78
2018-12-20T12:29:59.044Z,82.08
2018-12-20T12:35:07.866Z,80.47
2018-12-20T12:40:18.957Z,80.09
2018-12-20T12:45:31.197Z,81.40
2018-12-20T12:50:43.110Z,80.73
2018-12-20T12:53:13.161Z,81.44
2018-12-20T12:58:25.195Z,81.13
2018-12-20T13:03:37.682Z,82.33
2018-12-20T13:08:48.601Z,81.72
2018-12-20T13:14:00.761Z,81.91
2018-12-20T13:19:11.786Z,81.56
2018-12-20T13:24:24.599Z,81.35
2018-12-20T13:29:37.271Z,82.14
2018-12-20T13:34:49.531Z,84.26
2018-12-20T13:40:01.634Z,85.49
2018-12-20T13:45:13.941Z,85.34
2018-12-20T13:50:25.018Z,86.63
2018-12-20T13:55:37.787Z,86.65
2018-12-20T14:00:48.872Z,86.65
2018-12-20T14:06:01.014Z,86.28
2018-12-20T14:11:12.005Z,85.93
2018-12-20T14:13:41.444Z,86.21
2018-12-20T14:18:55.807Z,87.75
2018-12-20T14:24:07.741Z,89.62
2018-12-20T14:29:20.440Z,91.52
2018-12-20T14:34:32.473Z,91.84
2018-12-20T14:39:43.595Z,93.01
2018-12-20T14:44:55.537Z,93.88
2018-12-20T14:50:09.558Z,94.60
2018-12-20T14:55:21.478Z,93.95
2018-12-20T15:00:32.508Z,94.46
2018-12-20T15:03:01.999Z,95.77
2018-12-20T15:08:12.972Z,96.67
2018-12-20T15:13:24.929Z,94.78
2018-12-20T15:18:36.106Z,95.12
2018-12-20T15:23:48.323Z,94.17
2018-12-20T15:28:59.425Z,91.94
2018-12-20T15:31:28.839Z,92.58
2018-12-20T15:36:40.955Z,92.21
2018-12-20T15:41:51.908Z,91.99
2018-12-20T15:47:04.399Z,92.71
2018-12-20T15:52:16.708Z,92.49
2018-12-20T15:57:28.762Z,90.45
2018-12-20T16:02:39.907Z,89.92
2018-12-20T16:07:54.209Z,89.68
2018-12-20T16:13:06.533Z,88.97
2018-12-20T16:18:18.409Z,89.27
2018-12-20T16:23:36.577Z,88.00
2018-12-20T16:28:47.587Z,87.45
2018-12-20T16:33:59.591Z,88.03
2018-12-20T16:39:26.318Z,87.81
2018-12-20T16:41:55.739Z,88.11
2018-12-20T16:44:25.205Z,86.99
2018-12-20T16:49:36.266Z,88.09
2018-12-20T16:54:48.698Z,89.65
2018-12-20T17:00:01.951Z,89.63
2018-12-20T17:05:14.380Z,91.56
2018-12-20T17:10:25.477Z,92.88
2018-12-20T17:15:37.569Z,92.50
2018-12-20T17:20:49.610Z,92.93
2018-12-20T17:23:19.266Z,93.49
2018-12-20T17:28:26.802Z,94.11
2018-12-20T17:33:39.035Z,94.58
2018-12-20T17:38:49.966Z,94.49
2018-12-20T17:41:19.318Z,94.49
2018-12-20T17:43:48.745Z,93.95
2018-12-20T17:48:59.761Z,93.42
2018-12-20T17:54:14.055Z,94.44
2018-12-20T17:59:25.124Z,95.38
2018-12-20T18:04:37.219Z,96.59
2018-12-20T18:09:48.280Z,98.11
2018-12-20T18:15:00.273Z,98.92
2018-12-20T18:20:11.881Z,98.72
2018-12-20T18:25:24.203Z,97.49
2018-12-20T18:30:36.311Z,97.02
2018-12-20T18:33:05.676Z,96.50
2018-12-20T18:38:19.690Z,94.88
2018-12-20T18:43:31.941Z,95.58
2018-12-20T18:48:42.909Z,96.91
2018-12-20T18:53:55.953Z,96.54
2018-12-20T18:59:06.914Z,96.56
2018-12-20T19:01:36.268Z,95.72
2018-12-20T19:06:48.353Z,95.45
2018-12-20T19:12:00.421Z,95.08
2018-12-20T19:17:12.538Z,95.35
2018-12-20T19:22:24.575Z,95.77
2018-12-20T19:27:36.541Z,94.90
2018-12-20T19:32:51.781Z,94.62
2018-12-20T19:38:03.848Z,95.46
2018-12-20T19:43:18.175Z,96.31
2018-12-20T19:48:29.372Z,96.61
2018-12-20T19:53:41.633Z,96.89
2018-12-20T19:58:52.675Z,96.41
2018-12-20T20:04:05.323Z,95.40
2018-12-20T20:09:17.582Z,95.35
2018-12-20T20:14:30.240Z,94.45
2018-12-20T20:19:41.435Z,94.88
2018-12-20T20:24:53.761Z,93.91
2018-12-20T20:30:07.380Z,93.36
2018-12-20T20:35:19.479Z,93.12
2018-12-20T20:40:31.384Z,93.02
2018-12-20T20:45:44.419Z,92.17
2018-12-20T20:50:55.655Z,91.85
2018-12-20T20:56:07.994Z,92.04
2018-12-20T21:01:19.226Z,94.11
2018-12-20T21:03:48.705Z,94.91
2018-12-20T21:09:00.081Z,97.13
2018-12-20T21:14:12.291Z,98.24
2018-12-20T21:19:23.324Z,99.73
2018-12-20T21:24:35.901Z,100.00
2018-12-20T21:29:47.023Z,100.00
2018-12-20T21:34:59.022Z,100.00
2018-12-20T21:40:10.206Z,100.00
2018-12-20T21:45:23.042Z,100.00
2018-12-20T21:50:38.998Z,100.00
2018-12-20T21:55:48.318Z,98.69
2018-12-20T22:00:59.438Z,98.14
2018-12-20T22:06:12.046Z,97.61
2018-12-20T22:11:23.184Z,96.19
2018-12-20T22:16:35.568Z,94.90
2018-12-20T22:21:49.837Z,93.91
2018-12-20T22:26:58.681Z,93.42
2018-12-20T22:32:10.263Z,92.87
2018-12-20T22:37:22.534Z,92.27
2018-12-20T22:42:45.780Z,91.63
2018-12-20T22:48:27.654Z,90.58
2018-12-20T22:51:02.661Z,89.82
2018-12-20T22:53:41.878Z,90.35
2018-12-20T22:59:08.926Z,89.20
2018-12-20T23:04:38.324Z,88.23
2018-12-20T23:09:52.829Z,88.74
2018-12-20T23:15:10.110Z,88.26
2018-12-20T23:20:21.099Z,88.57
2018-12-20T23:25:33.124Z,87.29
2018-12-20T23:30:44.256Z,87.04
2018-12-20T23:35:56.855Z,87.25
2018-12-20T23:41:07.888Z,86.90
2018-12-20T23:46:16.492Z,86.83
2018-12-20T23:51:27.711Z,86.02
2018-12-20T23:56:39.982Z,85.64
